Time;durP1;ratioP1;P1;durP2;ratioP2;P2;SDS_P1;SDS_P2;PMS_P1;PMS_P2;Temp;Humidity;BMP_temperature;BMP_pressure;BME280_temperature;BME280_humidity;BME280_pressure;Samples;Min_cycle;Max_cycle;Signal;HPM_P1;HPM_P2
2021/10/09 00:00:37;;;;;;;28.23;14.03;;;;;;;4.69;65.24;102019.03;2065579;84;33880;-62
2021/10/09 00:03:43;;;;;;;29.23;14.20;;;;;;;4.67;65.36;102020.33;2061074;84;28185;-62
2021/10/09 00:06:46;;;;;;;27.48;13.98;;;;;;;4.66;65.50;102018.56;2080413;84;27716;-62
2021/10/09 00:09:55;;;;;;;31.00;14.38;;;;;;;4.66;65.55;102015.91;2099501;83;28720;-63
2021/10/09 00:12:59;;;;;;;32.70;16.15;;;;;;;4.65;65.65;102011.93;2102569;83;31084;-62
2021/10/09 00:16:04;;;;;;;27.62;15.13;;;;;;;4.63;65.73;102009.70;2100650;83;33815;-62
2021/10/09 00:19:09;;;;;;;33.45;14.87;;;;;;;4.62;65.84;102013.24;2063184;84;29366;-63
2021/10/09 00:22:14;;;;;;;29.52;14.30;;;;;;;4.60;65.93;102009.69;2095796;83;28303;-62
2021/10/09 00:25:19;;;;;;;;;;;;;;;4.56;65.95;102004.38;2129940;83;29547;-62
2021/10/09 00:28:23;;;;;;;19.93;11.57;;;;;;;4.55;66.02;102009.69;2047197;83;30999;-63
2021/10/09 00:31:26;;;;;;;23.80;12.53;;;;;;;4.47;66.13;102004.81;2054074;82;33059;-63
2021/10/09 00:34:28;;;;;;;28.67;13.53;;;;;;;4.40;66.08;102000.80;2107445;82;29354;-63
2021/10/09 00:37:33;;;;;;;27.55;13.75;;;;;;;4.35;66.13;102014.94;2097996;83;27781;-62
2021/10/09 00:40:39;;;;;;;18.60;10.00;;;;;;;4.30;66.14;102010.94;2148519;81;28704;-63
2021/10/09 00:43:42;;;;;;;29.40;13.45;;;;;;;4.24;66.30;102006.47;2128917;81;31803;-62
2021/10/09 00:46:48;;;;;;;26.23;12.47;;;;;;;4.20;66.37;102010.44;2113338;82;33038;-63
2021/10/09 00:49:53;;;;;;;24.02;12.00;;;;;;;4.13;66.56;102004.67;2153129;81;30291;-62
2021/10/09 00:52:57;;;;;;;24.47;12.23;;;;;;;4.09;66.65;102001.09;2097493;81;27921;-62
2021/10/09 00:56:01;;;;;;;22.93;12.05;;;;;;;4.08;66.74;101992.69;2158536;81;29552;-62
2021/10/09 00:59:04;;;;;;;27.50;12.55;;;;;;;4.10;66.87;101994.91;2161330;81;31075;-62
2021/10/09 01:02:11;;;;;;;27.85;12.88;;;;;;;4.09;66.91;102000.67;2107039;83;33045;-62
2021/10/09 01:05:18;;;;;;;25.97;13.10;;;;;;;4.10;66.97;101997.56;2132190;82;29345;-62
2021/10/09 01:08:24;;;;;;;24.85;12.60;;;;;;;4.12;66.93;101995.81;2134560;81;27783;-62
2021/10/09 01:11:29;;;;;;;30.50;13.62;;;;;;;4.12;67.00;101999.79;2131250;81;28673;-62
2021/10/09 01:14:34;;;;;;;37.25;13.70;;;;;;;4.10;67.02;101997.56;2149720;81;31135;-62
2021/10/09 01:17:35;;;;;;;25.05;13.00;;;;;;;4.10;67.07;101998.89;2140113;81;33615;-62
2021/10/09 01:20:52;;;;;;;24.43;13.00;;;;;;;4.06;67.07;101994.02;2123198;82;30023;-63
2021/10/09 01:23:58;;;;;;;30.40;13.72;;;;;;;4.04;67.06;101994.91;2100664;83;27729;-60
2021/10/09 01:27:03;;;;;;;33.42;13.10;;;;;;;4.01;67.13;101995.75;2101295;83;29608;-61
2021/10/09 01:30:09;;;;;;;;;;;;;;;3.98;67.16;101997.06;2088693;83;31877;-61
2021/10/09 01:33:13;;;;;;;;;;;;;;;3.94;67.23;101999.27;2151459;81;33008;-61
2021/10/09 01:36:20;;;;;;;27.45;12.80;;;;;;;3.86;67.26;101999.23;2143637;81;30162;-61
2021/10/09 01:39:21;;;;;;;26.52;12.73;;;;;;;3.79;67.42;101996.98;2143696;81;27747;-61
2021/10/09 01:42:26;;;;;;;26.68;12.33;;;;;;;3.75;67.43;101999.16;2101093;82;28612;-61
2021/10/09 01:45:31;;;;;;;24.77;12.20;;;;;;;3.71;67.38;101993.38;2066265;84;31129;-61
2021/10/09 01:48:39;;;;;;;25.72;12.85;;;;;;;3.69;67.60;101992.94;2074945;82;33014;-62
2021/10/09 01:51:43;;;;;;;27.73;11.18;;;;;;;3.67;67.74;101996.88;2102159;82;29379;-61
2021/10/09 01:54:48;;;;;;;26.80;12.60;;;;;;;3.67;67.67;101988.94;2150806;82;27822;-61
2021/10/09 01:57:50;;;;;;;25.50;11.97;;;;;;;3.71;67.82;101988.54;2133103;81;32425;-61
2021/10/09 02:00:54;;;;;;;25.27;11.90;;;;;;;3.71;67.75;101990.73;2150632;81;30865;-62
2021/10/09 02:04:00;;;;;;;26.68;13.22;;;;;;;3.72;67.83;101989.86;2123072;82;32994;-61
2021/10/09 02:07:12;;;;;;;25.15;12.55;;;;;;;3.72;67.85;101993.83;2150155;81;30208;-61
2021/10/09 02:10:15;;;;;;;29.10;12.75;;;;;;;3.68;67.89;101995.14;2130227;81;27863;-61
2021/10/09 02:13:34;;;;;;;25.57;12.13;;;;;;;3.65;67.84;101994.66;2149255;81;29122;-61
2021/10/09 02:26:10;;;;;;;26.20;13.20;;;;;;;3.53;67.94;101995.48;1985002;87;27826;-61
2021/10/09 02:29:13;;;;;;;25.60;12.50;;;;;;;3.49;68.08;101991.91;1999487;87;29573;-61
2021/10/09 02:32:19;;;;;;;28.45;11.30;;;;;;;3.45;68.10;101992.78;2014235;88;31083;-62
2021/10/09 02:35:23;;;;;;;23.25;11.85;;;;;;;3.43;68.20;101993.63;1993649;87;32434;-61
2021/10/09 02:38:26;;;;;;;31.07;12.78;;;;;;;3.44;68.29;101996.31;1980671;88;29358;-61
2021/10/09 02:41:33;;;;;;;25.23;13.15;;;;;;;3.45;68.36;101991.45;2004347;87;27813;-61
2021/10/09 02:44:34;;;;;;;24.85;13.53;;;;;;;3.49;68.34;101990.58;1996369;87;28695;-62
2021/10/09 02:47:39;;;;;;;27.87;13.45;;;;;;;3.50;68.39;101993.68;1995459;87;31132;-61
2021/10/09 02:50:49;;;;;;;22.25;12.35;;;;;;;3.54;68.35;101991.06;1986843;87;33933;-61
2021/10/09 02:53:55;;;;;;;28.62;12.60;;;;;;;3.54;68.35;101990.64;1983643;87;28811;-61
2021/10/09 02:56:58;;;;;;;26.23;13.13;;;;;;;3.53;68.31;101987.95;1983398;87;27820;-61
2021/10/09 03:00:00;;;;;;;27.45;13.38;;;;;;;3.50;68.27;101987.05;1993560;87;28879;-60
2021/10/09 03:03:05;;;;;;;26.40;13.05;;;;;;;3.47;68.30;101987.06;2054415;81;31719;-63
2021/10/09 03:06:09;;;;;;;19.25;9.80;;;;;;;3.42;68.41;101990.53;2155981;81;33022;-62
2021/10/09 03:09:14;;;;;;;24.00;12.70;;;;;;;3.37;68.37;101990.95;2158776;81;29329;-61
2021/10/09 03:12:18;;;;;;;24.52;12.60;;;;;;;3.33;68.53;101989.59;2155514;81;27631;-61
2021/10/09 03:15:24;;;;;;;25.02;12.90;;;;;;;3.31;68.62;101994.45;2157503;81;28676;-61
2021/10/09 03:18:29;;;;;;;27.00;12.28;;;;;;;3.27;68.77;101999.26;2159788;81;30458;-61
2021/10/09 03:21:34;;;;;;;;;;;;;;;3.25;68.63;101997.91;2154893;81;32973;-61
2021/10/09 03:24:37;;;;;;;20.95;11.78;;;;;;;3.27;68.90;102000.58;2127981;81;29388;-61
2021/10/09 03:27:39;;;;;;;25.55;12.88;;;;;;;3.26;68.84;102001.00;2126217;82;28383;-61
2021/10/09 03:30:46;;;;;;;20.77;11.68;;;;;;;3.28;68.88;102002.36;2128634;82;27939;-62
2021/10/09 03:33:52;;;;;;;26.27;13.53;;;;;;;3.31;68.98;102001.94;2102340;82;31080;-61
2021/10/09 03:36:55;;;;;;;25.62;13.22;;;;;;;3.35;68.98;102002.84;2146203;82;33266;-61
2021/10/09 03:40:03;;;;;;;26.87;13.93;;;;;;;3.35;69.01;101997.55;2152230;81;29351;-61
2021/10/09 03:43:12;;;;;;;26.27;14.13;;;;;;;3.36;69.05;101997.99;2119050;82;27673;-62
2021/10/09 03:46:25;;;;;;;30.55;14.05;;;;;;;3.38;69.04;101998.02;2096246;83;28658;-61
2021/10/09 03:52:50;;;;;;;27.45;13.28;;;;;;;3.37;69.09;102010.81;2062849;83;33844;-61
2021/10/09 03:55:56;;;;;;;24.25;14.63;;;;;;;3.36;69.04;102019.19;2098328;83;29359;-61
2021/10/09 03:59:04;;;;;;;26.15;14.60;;;;;;;3.35;69.03;102010.78;2089537;84;27730;-61
2021/10/09 04:02:09;;;;;;;25.20;14.70;;;;;;;3.33;69.07;102012.53;2065600;84;28731;-62
2021/10/09 04:05:14;;;;;;;29.75;14.78;;;;;;;3.31;69.17;102012.98;2076580;84;31126;-61
2021/10/09 04:08:17;;;;;;;24.82;13.30;;;;;;;3.27;69.13;102005.42;2097133;83;32416;-62
2021/10/09 04:11:23;;;;;;;27.55;13.40;;;;;;;3.22;69.29;102008.92;2100575;82;28802;-61
2021/10/09 04:14:28;;;;;;;21.73;13.32;;;;;;;3.22;69.28;102009.82;2104342;83;27845;-62
2021/10/09 04:17:29;;;;;;;24.40;12.60;;;;;;;3.24;69.41;102009.82;2095882;83;29402;-62
2021/10/09 04:20:34;;;;;;;27.48;14.28;;;;;;;3.26;69.34;102012.05;2085656;84;31138;-61
2021/10/09 04:23:40;;;;;;;23.38;12.90;;;;;;;3.29;69.48;102014.73;2076383;84;33621;-61
2021/10/09 04:26:47;;;;;;;23.67;13.65;;;;;;;3.26;69.35;102010.27;2080534;84;29452;-61
2021/10/09 04:29:53;;;;;;;24.60;13.43;;;;;;;3.32;69.37;102015.63;2052737;84;27763;-61
2021/10/09 04:32:59;;;;;;;25.00;13.95;;;;;;;3.33;69.33;102019.16;2075200;84;28700;-61
2021/10/09 04:36:08;;;;;;;25.85;14.28;;;;;;;3.33;69.44;102020.06;2048375;84;32006;-61
2021/10/09 04:39:12;;;;;;;30.32;14.43;;;;;;;3.32;69.36;102018.70;2102257;82;33807;-61
2021/10/09 04:42:19;;;;;;;30.57;15.28;;;;;;;3.29;69.34;102018.70;2139357;81;29504;-62
2021/10/09 04:45:20;;;;;;;26.17;13.75;;;;;;;3.27;69.47;102020.45;2109870;82;27854;-62
2021/10/09 04:48:25;;;;;;;26.15;14.18;;;;;;;3.22;69.50;102016.86;2138927;81;29103;-61
2021/10/09 04:51:27;;;;;;;30.82;15.63;;;;;;;3.15;69.61;102018.12;2089694;82;31860;-61
2021/10/09 04:54:32;;;;;;;25.65;13.48;;;;;;;3.13;69.56;102018.98;2062106;84;33061;-62
2021/10/09 04:57:35;;;;;;;27.70;12.43;;;;;;;3.07;69.61;102019.83;2112995;82;29347;-62
2021/10/09 05:00:39;;;;;;;28.92;13.32;;;;;;;3.06;69.70;102022.47;2154306;81;27880;-62
2021/10/09 05:03:45;;;;;;;27.77;13.75;;;;;;;3.08;69.75;102028.64;2106616;81;28770;-62
2021/10/09 05:06:47;;;;;;;25.75;13.10;;;;;;;3.09;69.86;102034.39;2133131;81;31035;-61
2021/10/09 05:09:50;;;;;;;26.95;14.18;;;;;;;3.12;70.20;102034.01;2158100;81;33782;-62
2021/10/09 05:12:56;;;;;;;31.15;14.80;;;;;;;3.16;70.10;102038.88;2166214;81;29357;-62
2021/10/09 05:16:01;;;;;;;31.02;14.78;;;;;;;3.19;70.11;102039.80;2152872;81;27603;-62
2021/10/09 05:19:07;;;;;;;;;;;;;;;3.22;70.05;102045.58;2108214;81;29616;-61
2021/10/09 05:22:12;;;;;;;28.90;14.35;;;;;;;3.25;70.01;102049.55;2130739;81;31126;-62
2021/10/09 05:25:15;;;;;;;30.92;15.32;;;;;;;3.25;70.12;102050.87;2068120;83;33012;-61
2021/10/09 05:28:25;;;;;;;32.23;15.43;;;;;;;3.26;70.11;102056.63;2143728;81;30022;-61
2021/10/09 05:31:32;;;;;;;34.90;16.37;;;;;;;3.26;70.10;102050.45;2137656;81;27628;-61
2021/10/09 05:34:37;;;;;;;28.47;16.37;;;;;;;3.30;70.16;102057.56;2137798;81;29147;-62
2021/10/09 05:37:44;;;;;;;36.03;16.97;;;;;;;3.33;70.09;102061.53;2096460;83;31836;-62
2021/10/09 05:40:47;;;;;;;31.85;16.93;;;;;;;3.34;70.26;102064.22;2117437;82;33736;-62
2021/10/09 05:43:53;;;;;;;30.65;16.35;;;;;;;3.35;70.15;102061.12;2130907;82;30007;-62
2021/10/09 05:46:59;;;;;;;30.62;15.95;;;;;;;3.40;70.17;102059.41;2179252;81;27709;-62
2021/10/09 05:50:08;;;;;;;27.93;15.32;;;;;;;3.47;70.08;102065.64;2140898;81;28673;-62
2021/10/09 05:53:28;;;;;;;28.25;16.97;;;;;;;3.56;70.08;102063.05;2162122;80;32038;-62
2021/10/09 05:59:59;;;;;;;32.95;16.60;;;;;;;3.76;69.97;102058.34;2135205;82;29789;-62
2021/10/09 06:31:12;;;;;;;29.05;16.20;;;;;;;5.20;68.71;102081.53;2156497;81;31239;-61
2021/10/09 06:59:31;;;;;;;30.48;14.75;;;;;;;8.63;64.14;102083.73;2023347;86;31148;-62
2021/10/09 07:02:39;;;;;;;26.42;14.35;;;;;;;9.07;64.12;102081.36;2014635;87;33020;-62
2021/10/09 07:05:45;;;;;;;25.37;15.03;;;;;;;9.55;63.90;102091.30;1981609;87;29389;-63
2021/10/09 07:08:48;;;;;;;23.73;13.50;;;;;;;9.95;62.23;102087.95;1972597;87;27634;-63
2021/10/09 07:11:50;;;;;;;27.30;13.68;;;;;;;10.41;62.05;102092.92;1986566;87;28656;-63
2021/10/09 07:14:56;;;;;;;25.25;14.00;;;;;;;10.77;61.28;102093.05;2010703;87;31848;-62
2021/10/09 07:17:59;;;;;;;29.23;15.13;;;;;;;11.15;60.29;102091.80;1981369;88;32998;-63
2021/10/09 07:21:05;;;;;;;23.30;13.88;;;;;;;11.45;59.82;102090.63;2008220;87;29543;-62
2021/10/09 07:24:10;;;;;;;19.37;13.53;;;;;;;11.72;59.47;102093.53;1990532;88;27800;-62
2021/10/09 07:27:14;;;;;;;21.55;13.28;;;;;;;11.94;57.86;102091.17;1966469;88;28752;-62
2021/10/09 07:30:17;;;;;;;27.55;13.55;;;;;;;12.28;57.96;102090.28;1993339;87;31152;-62
2021/10/09 07:33:22;;;;;;;24.30;13.08;;;;;;;12.65;58.30;102088.81;2009364;85;33988;-62
2021/10/09 07:36:29;;;;;;;22.27;13.45;;;;;;;13.10;57.80;102094.19;2077929;84;30169;-63
2021/10/09 07:39:34;;;;;;;23.80;14.30;;;;;;;13.44;56.09;102090.45;2075402;84;27903;-63
2021/10/09 07:42:38;;;;;;;22.75;12.33;;;;;;;13.75;56.72;102094.80;2150213;81;29486;-63
2021/10/09 07:45:44;;;;;;;22.73;13.20;;;;;;;13.92;55.56;102097.80;2162870;80;31869;-63
2021/10/09 07:48:49;;;;;;;22.07;14.38;;;;;;;14.10;55.28;102096.74;2142278;81;33016;-63
2021/10/09 07:51:54;;;;;;;19.62;12.37;;;;;;;14.28;52.86;102097.88;2147971;81;29366;-62
2021/10/09 07:54:57;;;;;;;18.42;12.20;;;;;;;14.22;53.51;102104.37;2169393;80;27702;-62
2021/10/09 07:58:02;;;;;;;19.80;13.00;;;;;;;14.41;51.68;102103.72;2154038;80;28964;-62
2021/10/09 08:01:07;;;;;;;24.47;13.78;;;;;;;14.40;51.08;102108.21;2157136;81;31131;-62
2021/10/09 08:04:15;;;;;;;;;;;;;;;14.47;52.76;102108.00;2145904;81;33819;-61
2021/10/09 08:07:19;;;;;;;22.60;13.32;;;;;;;14.58;52.19;102096.33;2177166;80;30185;-62
2021/10/09 08:10:25;;;;;;;20.80;13.60;;;;;;;14.52;51.85;102104.67;2185393;80;27877;-62
2021/10/09 08:13:27;;;;;;;20.40;13.55;;;;;;;14.25;51.37;102112.81;2141394;80;29399;-62
2021/10/09 08:16:33;;;;;;;21.35;13.32;;;;;;;14.03;50.95;102123.03;2161994;80;31700;-62
2021/10/09 08:19:39;;;;;;;18.25;12.75;;;;;;;13.67;50.53;102117.48;2136055;81;32926;-62
2021/10/09 08:22:58;;;;;;;21.85;12.33;;;;;;;13.43;49.95;102117.82;2138033;81;29393;-62
2021/10/09 08:39:08;;;;;;;22.07;12.90;;;;;;;12.66;51.38;102116.98;2144072;80;29370;-63
2021/10/09 08:42:15;;;;;;;18.77;12.95;;;;;;;12.61;51.50;102121.16;2167241;80;27960;-63
2021/10/09 08:45:21;;;;;;;19.32;12.80;;;;;;;12.51;50.44;102116.98;2169515;80;28973;-63
2021/10/09 08:48:27;;;;;;;20.77;11.57;;;;;;;12.38;51.08;102119.61;2128490;81;31116;-62
2021/10/09 08:51:32;;;;;;;24.55;12.53;;;;;;;12.36;50.64;102120.11;2141829;81;33665;-63
2021/10/09 08:54:43;;;;;;;20.68;11.33;;;;;;;12.33;50.84;102116.16;2113125;81;29334;-63
2021/10/09 08:57:48;;;;;;;21.90;12.33;;;;;;;12.34;50.82;102116.58;2140497;81;27640;-63
2021/10/09 09:01:00;;;;;;;17.25;11.22;;;;;;;12.38;50.95;102116.92;2103149;82;28713;-62
2021/10/09 09:41:21;;;;;;;17.62;8.65;;;;;;;12.39;47.13;102109.28;2174258;81;33183;-63
2021/10/09 09:44:27;;;;;;;16.80;9.50;;;;;;;12.36;47.65;102106.67;2153516;80;29394;-64
2021/10/09 09:47:38;;;;;;;14.75;9.03;;;;;;;12.35;47.04;102110.28;2150142;81;27747;-64
2021/10/09 09:50:43;;;;;;;15.05;9.38;;;;;;;12.29;46.88;102103.27;2163870;80;28753;-64
2021/10/09 09:53:49;;;;;;;15.80;8.23;;;;;;;12.26;46.23;102100.67;2153650;80;31038;-63
2021/10/09 09:56:59;;;;;;;14.00;9.13;;;;;;;12.26;46.90;102098.84;2135413;81;33847;-65
2021/10/09 10:00:09;;;;;;;14.65;8.35;;;;;;;12.29;45.69;102097.42;2107875;82;29336;-63
2021/10/09 10:03:15;;;;;;;13.13;7.58;;;;;;;12.30;46.22;102095.64;2137754;81;27707;-63
2021/10/09 10:06:18;;;;;;;11.83;7.30;;;;;;;12.27;44.84;102092.55;2164439;81;28671;-63
2021/10/09 10:09:20;;;;;;;11.73;6.75;;;;;;;12.28;45.68;102096.14;2152189;81;31449;-64
2021/10/09 10:12:30;;;;;;;7.95;6.12;;;;;;;12.27;44.75;102083.14;2152960;81;33138;-63
2021/10/09 10:15:36;;;;;;;12.50;5.90;;;;;;;12.28;44.64;102088.08;2143971;81;29409;-64
2021/10/09 10:18:49;;;;;;;12.65;6.47;;;;;;;12.29;44.71;102081.78;2175184;80;27842;-63
2021/10/09 10:21:55;;;;;;;10.58;5.80;;;;;;;12.28;44.44;102084.05;2172608;80;28762;-63
2021/10/09 10:25:01;;;;;;;12.50;6.45;;;;;;;12.34;44.60;102085.67;2179376;80;31704;-63
2021/10/09 10:28:08;;;;;;;10.48;6.37;;;;;;;12.36;44.86;102080.66;2151202;81;33012;-64
2021/10/09 10:31:14;;;;;;;12.00;7.17;;;;;;;12.43;44.90;102084.05;2149127;81;29989;-63
2021/10/09 10:34:24;;;;;;;9.45;6.30;;;;;;;12.49;44.79;102073.61;2132314;81;27917;-64
2021/10/09 10:37:36;;;;;;;11.25;6.50;;;;;;;12.52;44.34;102080.22;2140267;82;28703;-64
2021/10/09 10:40:58;;;;;;;14.90;6.67;;;;;;;12.53;44.18;102074.81;2153091;81;31048;-63
2021/10/09 10:44:05;;;;;;;13.32;6.45;;;;;;;12.58;44.02;102068.81;2159629;81;33664;-63
2021/10/09 10:47:49;;;;;;;18.48;8.25;;;;;;;12.62;43.62;102070.98;2159247;81;29460;-64
2021/10/09 10:54:07;;;;;;;12.70;6.62;;;;;;;12.59;44.03;102067.89;2046205;84;28678;-63
2021/10/09 10:57:10;;;;;;;10.58;7.08;;;;;;;12.58;43.71;102063.44;2037389;84;30990;-62
2021/10/09 11:00:17;;;;;;;13.60;6.97;;;;;;;12.57;43.78;102050.05;2054697;84;33015;-62
2021/10/09 11:03:22;;;;;;;10.23;7.00;;;;;;;12.55;43.25;102052.80;2045860;84;29553;-62
2021/10/09 11:06:28;;;;;;;13.62;7.53;;;;;;;12.53;43.16;102053.75;2018594;86;27816;-63
2021/10/09 11:09:36;;;;;;;11.70;7.42;;;;;;;12.55;43.58;102042.05;2048602;86;28674;-62
2021/10/09 11:12:50;;;;;;;15.40;8.73;;;;;;;12.57;43.94;102046.02;2050897;86;31157;-62
2021/10/09 11:15:57;;;;;;;10.60;7.47;;;;;;;12.58;43.49;102038.38;2039208;85;32956;-62
2021/10/09 11:19:01;;;;;;;14.45;7.75;;;;;;;12.57;43.28;102041.98;2027344;85;31004;-63
2021/10/09 11:22:06;;;;;;;14.95;7.60;;;;;;;12.53;43.12;102037.18;2010138;87;28249;-63
2021/10/09 11:25:12;;;;;;;13.95;7.58;;;;;;;12.54;42.73;102034.02;2110552;81;33126;-61
2021/10/09 11:28:33;;;;;;;11.85;6.83;;;;;;;12.53;43.49;102032.25;2143867;81;31054;-61
2021/10/09 11:31:38;;;;;;;10.23;5.80;;;;;;;12.55;43.14;102028.61;2145567;81;33878;-62
2021/10/09 11:34:51;;;;;;;11.33;6.37;;;;;;;12.59;41.24;102018.62;2142273;81;29353;-62
2021/10/09 11:37:57;;;;;;;13.32;5.75;;;;;;;12.63;41.88;102019.41;2093906;83;28377;-62
2021/10/09 11:41:10;;;;;;;12.73;6.95;;;;;;;12.65;41.04;102034.59;2104401;83;29323;-63
2021/10/09 11:44:28;;;;;;;16.62;5.83;;;;;;;12.65;41.17;102024.28;2086832;83;31051;-62
2021/10/09 11:53:31;;;;;;;9.73;6.25;;;;;;;12.64;40.02;102019.38;2147967;81;33034;-62
2021/10/09 11:54:31;;;;;;;9.98;6.45;;;;;;;12.65;40.24;102015.77;2147954;82;27631;-62
2021/10/09 11:57:33;;;;;;;11.80;6.72;;;;;;;12.66;41.13;102012.12;2142324;81;28851;-62
2021/10/09 12:00:41;;;;;;;12.30;6.75;;;;;;;12.73;41.19;102015.05;2127070;82;31108;-61
2021/10/09 12:03:46;;;;;;;9.40;5.78;;;;;;;12.78;40.99;102017.59;2144732;81;33077;-62
2021/10/09 12:10:19;;;;;;;11.03;6.22;;;;;;;12.82;40.83;102009.84;2145256;81;27783;-62
2021/10/09 12:13:23;;;;;;;12.00;6.85;;;;;;;12.85;40.94;102005.72;2155871;81;28718;-62
2021/10/09 12:16:43;;;;;;;9.83;6.05;;;;;;;12.90;40.94;102002.43;2140820;81;31221;-62
2021/10/09 12:19:58;;;;;;;24.90;15.00;;;;;;;12.96;40.94;102012.11;2140661;82;33021;-61
2021/10/09 12:23:02;;;;;;;12.05;7.03;;;;;;;12.96;40.30;101997.77;2142401;81;29800;-63
2021/10/09 12:26:18;;;;;;;11.10;5.90;;;;;;;12.99;41.17;101997.19;2123097;82;27953;-62
2021/10/09 12:29:21;;;;;;;7.47;5.28;;;;;;;13.04;41.23;101995.23;2114619;81;28680;-63
2021/10/09 12:32:26;;;;;;;11.73;6.30;;;;;;;13.07;40.52;101996.97;2150489;81;32194;-63
2021/10/09 12:35:33;;;;;;;11.33;5.78;;;;;;;13.09;40.47;101988.83;2147043;81;33094;-62
2021/10/09 12:38:39;;;;;;;9.48;6.12;;;;;;;13.10;40.73;101995.50;2161374;81;30029;-62
2021/10/09 12:41:46;;;;;;;7.28;5.10;;;;;;;13.13;40.05;101987.81;2177586;80;27810;-62
2021/10/09 12:44:52;;;;;;;8.18;5.10;;;;;;;13.14;39.39;101983.71;2172015;81;28700;-62
2021/10/09 12:47:57;;;;;;;12.73;6.58;;;;;;;13.15;38.58;101985.47;2168571;80;31781;-61
2021/10/09 12:51:01;;;;;;;15.38;7.85;;;;;;;13.13;38.22;101983.30;2147868;81;33402;-62
2021/10/09 12:54:06;;;;;;;14.05;9.08;;;;;;;13.10;39.11;101978.00;2151024;81;29393;-62
2021/10/09 12:57:12;;;;;;;12.78;6.22;;;;;;;13.09;38.78;101979.41;2142331;82;27827;-62
2021/10/09 13:00:19;;;;;;;11.75;6.20;;;;;;;13.10;39.33;101978.48;2141336;81;28726;-62
2021/10/09 13:03:22;;;;;;;9.43;4.75;;;;;;;13.10;39.43;101972.63;2144117;81;31160;-62
2021/10/09 13:06:28;;;;;;;8.83;5.12;;;;;;;13.12;39.14;101973.45;2145952;81;33017;-61
2021/10/09 13:09:34;;;;;;;7.95;5.22;;;;;;;13.13;38.48;101968.97;2142454;81;30050;-61
2021/10/09 13:12:40;;;;;;;12.33;5.08;;;;;;;13.13;38.31;101976.56;2159390;81;27890;-62
2021/10/09 13:15:42;;;;;;;8.68;5.30;;;;;;;13.11;38.47;101966.80;2153889;81;29358;-62
2021/10/09 13:18:48;;;;;;;9.88;4.80;;;;;;;13.10;38.80;101961.00;2152511;81;31048;-62
2021/10/09 13:21:50;;;;;;;10.15;5.20;;;;;;;13.14;38.53;101959.97;2143557;81;33648;-62
2021/10/09 13:24:54;;;;;;;11.00;5.08;;;;;;;13.16;38.86;101967.50;2124982;82;28824;-63
2021/10/09 13:27:59;;;;;;;14.60;5.58;;;;;;;13.16;39.08;101954.05;2130232;82;27811;-62
2021/10/09 13:31:05;;;;;;;11.55;4.87;;;;;;;13.15;39.07;101957.70;2125510;82;28749;-62
2021/10/09 13:37:23;;;;;;;;;;;;;;;13.15;39.41;101943.77;2144969;81;33817;-63
2021/10/09 13:40:24;;;;;;;7.72;5.42;;;;;;;13.16;39.39;101950.01;2154184;81;29755;-62
2021/10/09 13:43:27;;;;;;;;;;;;;;;13.15;40.09;101938.86;2138004;82;27738;-62
2021/10/09 13:46:33;;;;;;;10.95;5.25;;;;;;;13.15;39.90;101941.06;2123661;82;28671;-62
2021/10/09 13:49:38;;;;;;;10.08;5.75;;;;;;;13.13;39.82;101942.06;2129477;81;31107;-63
2021/10/09 13:52:40;;;;;;;10.82;5.10;;;;;;;13.12;40.09;101943.86;2153667;81;33590;-62
2021/10/09 13:55:43;;;;;;;11.40;5.65;;;;;;;13.14;40.34;101938.45;2140377;81;29393;-61
2021/10/09 13:58:49;;;;;;;9.98;5.87;;;;;;;13.13;40.04;101939.38;2125305;81;27754;-62
2021/10/09 14:01:56;;;;;;;9.48;5.80;;;;;;;13.12;40.11;101939.83;2110561;82;28674;-62
2021/10/09 14:04:59;;;;;;;8.53;5.90;;;;;;;13.10;40.15;101932.27;2135624;82;31166;-62
2021/10/09 14:08:04;;;;;;;13.00;6.33;;;;;;;13.08;39.89;101932.78;2124462;82;32863;-61
2021/10/09 14:11:07;;;;;;;10.30;6.25;;;;;;;13.05;39.68;101935.59;2127190;82;29367;-62
2021/10/09 14:14:11;;;;;;;8.53;6.35;;;;;;;13.03;40.19;101930.73;2131309;82;28424;-63
2021/10/09 14:17:18;;;;;;;7.85;6.10;;;;;;;12.99;39.75;101927.23;2118211;82;29125;-62
2021/10/09 14:20:21;;;;;;;9.38;6.35;;;;;;;12.96;39.84;101927.38;2045316;84;31674;-63
2021/10/09 14:23:25;;;;;;;9.63;6.08;;;;;;;12.95;39.98;101931.44;2053742;85;33017;-63
2021/10/09 14:26:27;;;;;;;11.23;5.80;;;;;;;12.91;39.54;101927.98;2137628;81;29937;-64
2021/10/09 14:29:30;;;;;;;12.33;5.80;;;;;;;12.88;39.99;101931.66;2144625;81;27803;-63
2021/10/09 14:32:36;;;;;;;7.03;5.15;;;;;;;12.84;40.17;101927.30;2076750;83;29377;-63
2021/10/09 14:35:41;;;;;;;17.27;5.25;;;;;;;12.81;40.24;101923.84;2101518;83;31040;-64
2021/10/09 14:38:46;;;;;;;7.08;5.40;;;;;;;12.78;40.56;101922.12;2096274;82;33789;-62
2021/10/09 14:41:51;;;;;;;;;;;;;;;12.76;40.64;101915.91;2117937;82;29397;-64
2021/10/09 14:44:57;;;;;;;14.13;6.37;;;;;;;12.74;40.83;101916.45;2151137;81;27733;-64
2021/10/09 14:48:21;;;;;;;7.87;5.20;;;;;;;12.70;40.90;101923.71;2112224;83;29528;-64
2021/10/09 14:51:32;;;;;;;10.45;5.20;;;;;;;12.65;40.48;101923.45;2110619;83;31076;-64
2021/10/09 15:21:05;;;;;;;13.62;5.85;;;;;;;12.20;40.69;101904.23;2153805;82;29268;-63
2021/10/09 15:24:11;;;;;;;13.13;6.00;;;;;;;12.15;40.67;101907.07;2076138;84;31752;-63
2021/10/09 15:30:21;;;;;;;10.88;4.97;;;;;;;12.05;40.86;101907.39;2102410;82;29420;-63
2021/10/09 15:33:26;;;;;;;11.18;5.53;;;;;;;11.97;41.09;101904.90;2132543;81;28260;-63
2021/10/09 15:36:32;;;;;;;9.55;6.08;;;;;;;11.90;41.26;101910.92;2103876;82;28687;-63
2021/10/09 15:39:37;;;;;;;9.18;5.53;;;;;;;11.84;41.45;101909.26;2136571;82;31021;-63
2021/10/09 15:42:43;;;;;;;12.00;6.75;;;;;;;11.78;41.77;101912.14;2121023;81;33698;-63
2021/10/09 15:45:49;;;;;;;9.95;6.58;;;;;;;11.70;41.86;101909.68;2101544;81;29385;-66
2021/10/09 15:48:54;;;;;;;14.07;6.70;;;;;;;11.63;42.19;101911.23;2158194;81;27756;-66
2021/10/09 15:52:01;;;;;;;15.95;7.42;;;;;;;11.55;42.32;101916.34;2122604;81;29476;-66
2021/10/09 15:55:05;;;;;;;12.00;7.72;;;;;;;11.47;42.48;101913.01;2112757;82;31075;-65
2021/10/09 15:58:08;;;;;;;16.02;7.58;;;;;;;11.39;42.70;101913.66;2146974;81;32961;-63
2021/10/09 16:01:13;;;;;;;13.05;7.72;;;;;;;11.31;42.90;101912.53;2152518;81;29438;-63
2021/10/09 16:04:19;;;;;;;14.00;7.65;;;;;;;11.24;43.07;101913.62;2146263;82;27742;-62
2021/10/09 16:07:21;;;;;;;12.43;7.80;;;;;;;11.13;43.30;101915.25;2113855;82;28653;-62
2021/10/09 16:10:22;;;;;;;11.78;7.55;;;;;;;11.05;43.55;101914.55;2135789;81;32008;-62
2021/10/09 16:13:29;;;;;;;15.20;8.30;;;;;;;10.94;43.65;101911.69;2154960;81;33319;-64
2021/10/09 16:16:35;;;;;;;19.85;9.60;;;;;;;10.87;43.82;101921.27;2123034;82;30114;-62
2021/10/09 16:19:40;;;;;;;23.70;10.90;;;;;;;10.77;44.04;101922.81;2126284;82;27780;-62
2021/10/09 16:22:45;;;;;;;;;;;;;;;10.67;44.26;101926.65;2098608;83;28683;-61
2021/10/09 16:25:50;;;;;;;20.00;10.93;;;;;;;10.54;44.55;101922.03;2071737;85;31077;-62
2021/10/09 16:28:56;;;;;;;33.02;11.83;;;;;;;10.41;44.79;101924.57;2066153;84;33859;-62
2021/10/09 16:32:01;;;;;;;26.55;14.47;;;;;;;10.30;44.84;101924.34;2048095;84;30070;-63
2021/10/09 16:35:03;;;;;;;32.93;21.40;;;;;;;10.20;45.13;101924.09;2133915;81;27730;-62
2021/10/09 16:38:07;;;;;;;25.52;14.85;;;;;;;10.11;45.32;101925.65;2146316;81;29470;-62
2021/10/09 16:41:09;;;;;;;23.10;12.80;;;;;;;10.01;45.62;101921.81;2128542;81;31035;-62
2021/10/09 16:44:14;;;;;;;41.15;21.48;;;;;;;9.95;45.80;101930.43;2125020;82;33657;-61
2021/10/09 16:47:18;;;;;;;34.98;20.15;;;;;;;9.85;46.02;101930.62;2095820;82;29363;-61
2021/10/09 16:50:24;;;;;;;68.33;39.30;;;;;;;9.77;46.31;101933.90;2074633;84;27745;-62
2021/10/09 16:53:28;;;;;;;48.50;23.55;;;;;;;9.66;46.51;101928.79;2129961;81;28776;-62
2021/10/09 16:56:34;;;;;;;38.33;19.27;;;;;;;9.53;46.69;101933.48;2135001;82;31046;-62
2021/10/09 16:59:40;;;;;;;42.48;19.75;;;;;;;9.41;47.26;101932.38;2148475;81;32993;-62